createdAt,value
2022-11-19T00:00:28.872Z,26.89
2022-11-19T00:05:30.260Z,26.80
2022-11-19T00:10:34.197Z,26.57
2022-11-19T00:15:35.979Z,26.51
2022-11-19T00:20:37.413Z,26.26
2022-11-19T00:25:38.776Z,26.46
2022-11-19T00:30:48.180Z,26.44
2022-11-19T00:35:50.117Z,26.55
2022-11-19T00:40:51.505Z,26.54
2022-11-19T00:45:52.876Z,26.58
2022-11-19T00:50:54.265Z,26.40
2022-11-19T00:55:55.665Z,26.20
2022-11-19T01:00:57.083Z,26.23
2022-11-19T01:05:58.538Z,26.22
2022-11-19T01:11:07.376Z,26.48
2022-11-19T01:16:13.045Z,26.88
2022-11-19T01:21:14.445Z,26.57
2022-11-19T01:26:15.857Z,25.99
2022-11-19T01:31:18.957Z,25.15
2022-11-19T01:36:25.113Z,25.71
2022-11-19T01:41:30.799Z,25.84
2022-11-19T01:46:33.997Z,25.72
2022-11-19T01:51:49.071Z,25.70
2022-11-19T01:56:50.443Z,25.82
2022-11-19T02:01:51.804Z,25.00
2022-11-19T02:06:53.647Z,26.25
2022-11-19T02:12:17.381Z,25.77
2022-11-19T02:17:33.755Z,25.88
2022-11-19T02:22:50.119Z,25.78
2022-11-19T02:28:01.216Z,25.18
2022-11-19T02:33:26.623Z,25.16
2022-11-19T02:38:47.771Z,26.08
2022-11-19T02:43:49.132Z,26.13
2022-11-19T02:48:50.512Z,25.26
2022-11-19T02:53:54.130Z,25.85
2022-11-19T02:59:13.642Z,25.50
2022-11-19T03:04:29.845Z,25.05
2022-11-19T03:09:31.872Z,25.78
2022-11-19T03:14:59.967Z,24.85
2022-11-19T03:20:24.575Z,24.88
2022-11-19T03:25:35.239Z,25.84
2022-11-19T03:30:36.904Z,25.70
2022-11-19T03:35:53.381Z,25.76
2022-11-19T03:40:54.803Z,25.47
2022-11-19T03:45:56.903Z,25.93
2022-11-19T03:51:00.860Z,25.82
2022-11-19T03:56:03.874Z,23.64
2022-11-19T04:01:05.276Z,25.79
2022-11-19T04:06:06.713Z,25.58
2022-11-19T04:16:08.575Z,25.70
2022-11-19T04:21:09.992Z,24.92
2022-11-19T04:26:11.352Z,25.00
2022-11-19T04:31:17.720Z,24.44
2022-11-19T04:36:19.487Z,25.27
2022-11-19T04:41:20.868Z,25.23
2022-11-19T04:46:22.231Z,24.97
2022-11-19T04:51:23.747Z,25.31
2022-11-19T04:56:25.137Z,24.76
2022-11-19T05:01:26.859Z,24.31
2022-11-19T05:06:28.620Z,24.60
2022-11-19T05:11:29.984Z,24.75
2022-11-19T05:16:31.363Z,25.35
2022-11-19T05:21:32.782Z,25.52
2022-11-19T05:26:34.164Z,25.38
2022-11-19T05:31:35.532Z,25.22
2022-11-19T05:36:36.908Z,25.29
2022-11-19T05:41:38.280Z,24.33
2022-11-19T05:46:39.652Z,25.11
2022-11-19T05:51:41.031Z,24.28
2022-11-19T05:56:43.628Z,23.64
2022-11-19T06:01:44.988Z,24.22
2022-11-19T06:06:46.385Z,24.34
2022-11-19T06:11:47.771Z,23.03
2022-11-19T06:16:50.007Z,23.48
2022-11-19T06:21:51.500Z,23.72
2022-11-19T06:26:52.939Z,23.22
2022-11-19T06:31:54.335Z,24.13
2022-11-19T06:36:55.717Z,23.22
2022-11-19T06:42:17.040Z,23.44
2022-11-19T06:47:18.404Z,24.26
2022-11-19T06:52:19.772Z,24.24
2022-11-19T06:57:21.163Z,24.09
2022-11-19T07:02:22.559Z,24.46
2022-11-19T07:07:24.037Z,24.62
2022-11-19T07:12:25.439Z,23.76
2022-11-19T07:17:26.848Z,24.00
2022-11-19T07:22:28.247Z,23.11
2022-11-19T07:27:29.637Z,23.03
2022-11-19T07:32:31.000Z,23.53
2022-11-19T07:37:32.371Z,23.32
2022-11-19T07:42:52.815Z,24.03
2022-11-19T07:47:54.196Z,23.25
2022-11-19T07:52:58.656Z,22.84
2022-11-19T07:58:00.256Z,23.76
2022-11-19T08:03:02.253Z,23.66
2022-11-19T08:08:03.647Z,24.28
2022-11-19T08:13:05.011Z,23.83
2022-11-19T08:18:12.332Z,24.44
2022-11-19T08:23:13.907Z,24.42
2022-11-19T08:28:15.580Z,23.94
2022-11-19T08:33:16.957Z,24.19
2022-11-19T08:38:18.359Z,23.74
2022-11-19T08:43:19.735Z,23.62
2022-11-19T08:48:21.106Z,23.74
2022-11-19T08:53:22.537Z,24.31
2022-11-19T08:58:23.931Z,23.29
2022-11-19T09:03:25.577Z,24.48
2022-11-19T09:08:26.952Z,23.70
2022-11-19T09:13:28.396Z,24.11
2022-11-19T09:18:29.780Z,24.44
2022-11-19T09:23:31.179Z,23.49
2022-11-19T09:28:32.621Z,24.56
2022-11-19T09:33:35.447Z,23.64
2022-11-19T09:38:36.919Z,24.94
2022-11-19T09:43:56.248Z,24.18
2022-11-19T09:49:00.155Z,24.04
2022-11-19T09:54:04.773Z,24.88
2022-11-19T09:59:33.260Z,24.54
2022-11-19T10:04:34.650Z,24.88
2022-11-19T10:09:44.732Z,23.71
2022-11-19T10:15:09.145Z,23.80
2022-11-19T10:20:33.761Z,23.73
2022-11-19T10:25:39.347Z,23.97
2022-11-19T10:30:42.867Z,24.68
2022-11-19T10:35:49.760Z,23.70
2022-11-19T10:40:59.472Z,24.27
2022-11-19T10:46:01.076Z,24.37
2022-11-19T10:51:02.448Z,24.71
2022-11-19T10:56:05.480Z,23.82
2022-11-19T11:01:17.071Z,24.58
2022-11-19T11:06:18.494Z,24.85
2022-11-19T11:11:47.228Z,25.10
2022-11-19T11:16:48.599Z,25.12
2022-11-19T11:21:53.322Z,24.90
2022-11-19T11:27:22.151Z,24.54
2022-11-19T11:32:30.662Z,24.00
2022-11-19T11:37:32.215Z,24.59
2022-11-19T11:42:33.594Z,24.03
2022-11-19T11:47:36.496Z,23.95
2022-11-19T11:52:44.153Z,23.33
2022-11-19T11:57:58.942Z,22.37
2022-11-19T12:03:01.123Z,23.20
2022-11-19T12:08:07.339Z,22.34
2022-11-19T12:13:20.860Z,22.87
2022-11-19T12:18:46.180Z,22.15
2022-11-19T12:24:06.247Z,22.21
2022-11-19T12:29:19.714Z,22.67
2022-11-19T12:34:26.923Z,23.78
2022-11-19T12:39:45.519Z,23.07
2022-11-19T12:45:03.423Z,23.38
2022-11-19T12:50:29.217Z,23.75
2022-11-19T12:55:36.392Z,23.84
2022-11-19T13:00:41.118Z,24.10
2022-11-19T13:05:47.708Z,23.73
2022-11-19T13:10:50.910Z,23.28
2022-11-19T13:16:12.674Z,22.59
2022-11-19T13:21:14.094Z,22.25
2022-11-19T13:26:20.899Z,23.00
2022-11-19T13:31:37.399Z,22.74
2022-11-19T13:36:42.208Z,23.27
2022-11-19T13:42:04.668Z,23.47
2022-11-19T13:47:25.155Z,23.52
2022-11-19T13:52:35.647Z,23.50
2022-11-19T13:57:39.129Z,23.73
2022-11-19T14:03:03.637Z,23.67
2022-11-19T14:08:15.026Z,22.42
2022-11-19T14:13:25.437Z,23.83
2022-11-19T14:18:51.530Z,22.62
2022-11-19T14:24:14.179Z,22.26
2022-11-19T14:29:18.662Z,22.79
2022-11-19T14:34:28.167Z,22.17
2022-11-19T14:39:33.410Z,22.46
2022-11-19T14:44:35.723Z,22.25
2022-11-19T14:49:38.765Z,21.65
2022-11-19T14:54:43.198Z,22.12
2022-11-19T14:59:46.527Z,22.74
2022-11-19T15:04:58.168Z,23.07
2022-11-19T15:10:10.348Z,22.61
2022-11-19T15:15:20.875Z,22.49
2022-11-19T15:20:44.552Z,22.78
2022-11-19T15:26:28.221Z,22.10
2022-11-19T15:31:54.282Z,22.54
2022-11-19T15:37:03.477Z,23.25
2022-11-19T15:42:07.703Z,23.20
2022-11-19T15:47:42.318Z,22.84
2022-11-19T15:52:57.314Z,22.98
2022-11-19T15:58:12.799Z,23.80
2022-11-19T16:03:14.604Z,22.46
2022-11-19T16:08:17.012Z,23.02
2022-11-19T16:13:44.716Z,24.26
2022-11-19T16:18:47.215Z,22.90
2022-11-19T16:24:07.035Z,22.69
2022-11-19T16:29:20.149Z,23.46
2022-11-19T16:34:31.981Z,23.64
2022-11-19T16:39:33.663Z,22.83
2022-11-19T16:44:35.080Z,23.22
2022-11-19T16:49:48.231Z,23.39
2022-11-19T16:54:50.065Z,23.78
2022-11-19T16:59:52.936Z,23.35
2022-11-19T17:04:54.324Z,23.23
2022-11-19T17:10:10.644Z,23.70
2022-11-19T17:15:47.796Z,23.68
2022-11-19T17:20:54.415Z,23.10
2022-11-19T17:25:57.934Z,22.79
2022-11-19T17:30:59.293Z,23.80
2022-11-19T17:36:00.741Z,22.91
2022-11-19T17:41:02.789Z,23.56
2022-11-19T17:46:04.193Z,23.79
2022-11-19T17:51:05.599Z,23.87
2022-11-19T17:56:07.355Z,23.03
2022-11-19T18:01:09.596Z,23.31
2022-11-19T18:06:12.179Z,23.53
2022-11-19T18:11:15.763Z,23.30
2022-11-19T18:16:21.391Z,23.86
2022-11-19T18:21:22.957Z,23.85
2022-11-19T18:26:24.342Z,23.94
2022-11-19T18:31:26.926Z,23.87
2022-11-19T18:36:28.563Z,23.44
2022-11-19T18:41:30.138Z,23.38
2022-11-19T18:46:31.552Z,23.51
2022-11-19T18:51:32.971Z,23.74
2022-11-19T18:56:34.340Z,23.62
2022-11-19T19:01:35.832Z,23.25
2022-11-19T19:06:37.416Z,23.13
2022-11-19T19:11:57.341Z,22.99
2022-11-19T19:16:58.860Z,23.10
2022-11-19T19:22:00.369Z,24.29
2022-11-19T19:27:01.827Z,23.48
2022-11-19T19:32:03.552Z,23.52
2022-11-19T19:37:05.260Z,23.97
2022-11-19T19:42:06.780Z,23.71
2022-11-19T19:47:08.147Z,23.64
2022-11-19T19:52:09.922Z,23.04
2022-11-19T19:57:11.405Z,23.25
2022-11-19T20:02:12.849Z,24.13
2022-11-19T20:07:14.287Z,23.10
2022-11-19T20:12:15.708Z,22.92
2022-11-19T20:17:17.151Z,23.30
2022-11-19T20:22:18.531Z,23.22
2022-11-19T20:27:19.910Z,23.43
2022-11-19T20:32:21.301Z,23.28
2022-11-19T20:37:22.707Z,23.41
2022-11-19T20:42:42.618Z,23.73
2022-11-19T20:47:43.999Z,23.25
2022-11-19T20:52:45.416Z,23.20
2022-11-19T20:57:46.805Z,23.27
2022-11-19T21:02:48.165Z,23.47
2022-11-19T21:07:49.764Z,22.71
2022-11-19T21:13:02.869Z,23.24
2022-11-19T21:18:04.363Z,23.69
2022-11-19T21:23:05.743Z,22.74
2022-11-19T21:28:07.137Z,24.07
2022-11-19T21:33:08.517Z,23.10
2022-11-19T21:38:12.311Z,23.15
2022-11-19T21:43:13.948Z,23.52
2022-11-19T21:48:15.812Z,23.30
2022-11-19T21:53:17.499Z,23.20
2022-11-19T21:58:18.903Z,23.43
2022-11-19T22:03:20.263Z,22.90
2022-11-19T22:08:21.630Z,23.27
2022-11-19T22:13:23.107Z,22.68
2022-11-19T22:18:24.566Z,22.61
2022-11-19T22:23:25.968Z,22.98
2022-11-19T22:28:27.346Z,22.64
2022-11-19T22:33:38.731Z,22.45
2022-11-19T22:38:40.673Z,23.96
2022-11-19T22:43:42.080Z,23.43
2022-11-19T22:48:43.586Z,22.99
2022-11-19T22:53:45.063Z,22.90
2022-11-19T22:58:46.781Z,24.03
2022-11-19T23:03:48.171Z,23.18
2022-11-19T23:08:49.630Z,22.38
2022-11-19T23:13:51.015Z,22.78
2022-11-19T23:18:52.544Z,22.65
2022-11-19T23:23:53.996Z,22.15
2022-11-19T23:28:55.527Z,22.58
2022-11-19T23:33:59.208Z,22.16
2022-11-19T23:39:01.332Z,22.65
2022-11-19T23:44:02.903Z,22.26
2022-11-19T23:49:05.212Z,22.42
2022-11-19T23:54:06.883Z,22.56
2022-11-19T23:59:08.256Z,23.38
